createdAt,value
2023-04-13T00:01:25.059Z,10.97
2023-04-13T00:03:53.315Z,10.86
2023-04-13T00:06:22.875Z,10.85
2023-04-13T00:08:54.824Z,10.84
2023-04-13T00:11:23.005Z,10.87
2023-04-13T00:13:53.379Z,10.75
2023-04-13T00:16:21.479Z,10.67
2023-04-13T00:18:49.606Z,10.67
2023-04-13T00:21:17.628Z,10.59
2023-04-13T00:23:45.770Z,10.65
2023-04-13T00:26:13.796Z,10.63
2023-04-13T00:28:42.399Z,10.62
2023-04-13T00:31:12.290Z,10.49
2023-04-13T00:33:41.681Z,10.57
2023-04-13T00:36:10.292Z,10.69
2023-04-13T00:38:38.985Z,10.56
2023-04-13T00:41:07.960Z,10.74
2023-04-13T00:43:35.964Z,10.73
2023-04-13T00:46:05.364Z,10.81
2023-04-13T00:48:35.943Z,10.87
2023-04-13T00:51:04.250Z,10.86
2023-04-13T00:53:33.600Z,10.86
2023-04-13T00:56:04.049Z,10.84
2023-04-13T00:58:32.215Z,10.96
2023-04-13T01:01:00.242Z,10.92
2023-04-13T01:03:28.292Z,10.87
2023-04-13T01:06:11.478Z,11.00
2023-04-13T01:08:45.647Z,11.03
2023-04-13T01:11:24.575Z,10.84
2023-04-13T01:13:59.255Z,11.01
2023-04-13T01:16:32.111Z,10.98
2023-04-13T01:19:02.463Z,11.08
2023-04-13T01:21:32.880Z,11.13
2023-04-13T01:24:17.831Z,10.99
2023-04-13T01:26:55.495Z,11.01
2023-04-13T01:29:26.858Z,11.08
2023-04-13T01:31:55.793Z,11.07
2023-04-13T01:34:25.527Z,11.14
2023-04-13T01:36:55.141Z,11.19
2023-04-13T01:39:25.572Z,11.11
2023-04-13T01:42:02.394Z,11.07
2023-04-13T01:44:34.544Z,11.13
2023-04-13T01:47:16.096Z,11.24
2023-04-13T01:49:58.897Z,11.25
2023-04-13T01:52:40.975Z,11.26
2023-04-13T01:55:13.709Z,11.43
2023-04-13T01:57:47.313Z,11.44
2023-04-13T02:00:19.626Z,11.38
2023-04-13T02:02:49.790Z,11.39
2023-04-13T02:05:17.973Z,11.44
2023-04-13T02:07:46.804Z,11.52
2023-04-13T02:10:16.295Z,11.47
2023-04-13T02:12:45.890Z,11.60
2023-04-13T02:15:14.005Z,11.56
2023-04-13T02:17:45.034Z,11.39
2023-04-13T02:20:13.494Z,11.54
2023-04-13T02:22:41.687Z,11.59
2023-04-13T02:25:11.425Z,11.51
2023-04-13T02:27:40.236Z,11.66
2023-04-13T02:30:09.772Z,11.75
2023-04-13T02:32:39.624Z,11.75
2023-04-13T02:35:11.095Z,11.79
2023-04-13T02:37:41.218Z,11.82
2023-04-13T02:40:13.605Z,11.77
2023-04-13T02:42:42.209Z,11.86
2023-04-13T02:45:13.491Z,11.78
2023-04-13T02:47:42.788Z,11.82
2023-04-13T02:50:14.044Z,11.89
2023-04-13T02:52:47.344Z,11.82
2023-04-13T02:55:16.639Z,11.86
2023-04-13T02:57:51.830Z,11.84
2023-04-13T03:00:21.257Z,11.68
2023-04-13T03:02:56.309Z,11.68
2023-04-13T03:05:28.972Z,11.70
2023-04-13T03:07:57.128Z,11.81
2023-04-13T03:10:25.917Z,11.76
2023-04-13T03:12:55.382Z,11.83
2023-04-13T03:15:23.736Z,11.89
2023-04-13T03:17:51.845Z,11.85
2023-04-13T03:20:25.213Z,11.90
2023-04-13T03:23:01.757Z,11.88
2023-04-13T03:25:34.084Z,11.89
2023-04-13T03:28:04.209Z,11.84
2023-04-13T03:30:37.598Z,11.90
2023-04-13T03:33:05.813Z,11.91
2023-04-13T03:35:36.956Z,11.93
2023-04-13T03:38:09.342Z,11.78
2023-04-13T03:40:40.119Z,11.75
2023-04-13T03:43:08.222Z,11.81
2023-04-13T03:45:41.847Z,11.86
2023-04-13T03:48:12.470Z,11.98
2023-04-13T03:50:40.745Z,11.89
2023-04-13T03:53:11.516Z,11.82
2023-04-13T03:55:44.303Z,11.90
2023-04-13T03:58:12.782Z,11.91
2023-04-13T04:00:41.354Z,11.85
2023-04-13T04:03:25.824Z,11.84
2023-04-13T04:06:00.149Z,11.91
2023-04-13T04:08:31.405Z,12.00
2023-04-13T04:11:04.219Z,11.92
2023-04-13T04:13:33.612Z,12.02
2023-04-13T04:16:08.783Z,12.12
2023-04-13T04:18:39.684Z,12.14
2023-04-13T04:21:13.387Z,12.08
2023-04-13T04:23:42.849Z,12.01
2023-04-13T04:26:13.985Z,12.14
2023-04-13T04:28:52.038Z,12.21
2023-04-13T04:31:25.159Z,12.21
2023-04-13T04:33:56.803Z,12.13
2023-04-13T04:36:26.596Z,12.18
2023-04-13T04:39:02.345Z,12.27
2023-04-13T04:41:37.905Z,12.18
2023-04-13T04:44:08.305Z,12.14
2023-04-13T04:46:41.712Z,12.12
2023-04-13T04:49:13.954Z,12.27
2023-04-13T04:51:42.340Z,12.28
2023-04-13T04:54:16.799Z,12.19
2023-04-13T04:56:47.564Z,12.30
2023-04-13T04:59:18.255Z,12.18
2023-04-13T05:01:56.741Z,12.30
2023-04-13T05:04:24.811Z,12.38
2023-04-13T05:06:53.941Z,12.42
2023-04-13T05:09:28.177Z,12.43
2023-04-13T05:11:58.063Z,12.43
2023-04-13T05:14:26.144Z,12.52
2023-04-13T05:16:54.664Z,12.55
2023-04-13T05:19:38.609Z,12.55
2023-04-13T05:22:26.071Z,12.59
2023-04-13T05:25:02.263Z,12.53
2023-04-13T05:27:31.244Z,12.53
2023-04-13T05:29:59.701Z,12.61
2023-04-13T05:32:27.758Z,12.69
2023-04-13T05:34:59.320Z,12.62
2023-04-13T05:37:28.506Z,12.59
2023-04-13T05:39:56.606Z,12.51
2023-04-13T05:42:31.922Z,12.61
2023-04-13T05:45:00.786Z,12.51
2023-04-13T05:47:30.446Z,12.56
2023-04-13T05:50:04.085Z,12.58
2023-04-13T05:52:32.689Z,12.73
2023-04-13T05:55:01.231Z,12.72
2023-04-13T05:57:32.279Z,12.69
2023-04-13T06:00:02.514Z,12.76
2023-04-13T06:02:41.892Z,12.87
2023-04-13T06:05:14.584Z,12.93
2023-04-13T06:07:44.888Z,13.05
2023-04-13T06:10:14.249Z,13.11
2023-04-13T06:12:44.627Z,13.16
2023-04-13T06:15:13.647Z,13.19
2023-04-13T06:17:42.145Z,13.17
2023-04-13T06:20:11.344Z,13.25
2023-04-13T06:22:39.448Z,13.29
2023-04-13T06:25:08.513Z,13.23
2023-04-13T06:27:38.008Z,13.12
2023-04-13T06:30:09.279Z,13.15
2023-04-13T06:32:37.678Z,13.37
2023-04-13T06:35:06.880Z,13.44
2023-04-13T06:37:41.418Z,13.51
2023-04-13T06:40:14.220Z,13.53
2023-04-13T06:42:48.992Z,13.45
2023-04-13T06:45:40.003Z,13.59
2023-04-13T06:48:11.537Z,13.76
2023-04-13T06:50:42.420Z,13.70
2023-04-13T06:53:10.488Z,13.85
2023-04-13T06:55:38.613Z,13.94
2023-04-13T06:58:07.297Z,13.84
2023-04-13T07:00:35.383Z,13.91
2023-04-13T07:03:04.960Z,13.74
2023-04-13T07:05:33.407Z,13.95
2023-04-13T07:08:07.620Z,13.96
2023-04-13T07:10:39.439Z,13.93
2023-04-13T07:13:13.415Z,13.92
2023-04-13T07:15:42.778Z,13.92
2023-04-13T07:18:12.960Z,13.98
2023-04-13T07:20:41.058Z,14.09
2023-04-13T07:23:10.544Z,14.06
2023-04-13T07:25:39.201Z,14.43
2023-04-13T07:28:15.636Z,14.72
2023-04-13T07:30:44.590Z,14.79
2023-04-13T07:33:14.652Z,14.72
2023-04-13T07:35:42.802Z,14.79
2023-04-13T07:38:13.074Z,14.68
2023-04-13T07:40:41.141Z,14.62
2023-04-13T07:43:12.091Z,14.66
2023-04-13T07:45:43.178Z,14.68
2023-04-13T07:48:11.816Z,14.83
2023-04-13T07:50:43.511Z,14.75
2023-04-13T07:53:16.318Z,14.78
2023-04-13T07:55:45.013Z,14.67
2023-04-13T07:58:14.444Z,14.49
2023-04-13T08:00:42.772Z,14.53
2023-04-13T08:03:11.054Z,14.53
2023-04-13T08:05:39.339Z,14.75
2023-04-13T08:08:09.280Z,14.83
2023-04-13T08:10:37.328Z,14.98
2023-04-13T08:13:07.823Z,15.30
2023-04-13T08:15:36.358Z,15.55
2023-04-13T08:18:04.600Z,15.96
2023-04-13T08:20:33.771Z,16.10
2023-04-13T08:23:02.314Z,16.29
2023-04-13T08:25:31.874Z,16.30
2023-04-13T08:28:01.311Z,16.46
2023-04-13T08:30:34.028Z,16.51
2023-04-13T08:33:04.834Z,16.30
2023-04-13T08:35:34.256Z,16.04
2023-04-13T08:38:04.198Z,15.89
2023-04-13T08:40:38.094Z,15.83
2023-04-13T08:43:08.170Z,15.92
2023-04-13T08:45:37.040Z,16.36
2023-04-13T08:48:05.609Z,16.60
2023-04-13T08:50:38.615Z,16.61
2023-04-13T08:53:09.400Z,16.42
2023-04-13T08:55:45.270Z,16.33
2023-04-13T08:58:14.823Z,16.20
2023-04-13T09:00:44.133Z,16.00
2023-04-13T09:03:15.644Z,16.12
2023-04-13T09:05:52.393Z,16.05
2023-04-13T09:08:21.454Z,15.73
2023-04-13T09:10:53.872Z,15.59
2023-04-13T09:13:22.117Z,15.33
2023-04-13T09:15:50.206Z,15.07
2023-04-13T09:18:33.700Z,15.00
2023-04-13T09:21:08.154Z,15.62
2023-04-13T09:23:36.214Z,16.04
2023-04-13T09:26:10.230Z,16.22
2023-04-13T09:28:47.845Z,15.91
2023-04-13T09:31:16.398Z,15.69
2023-04-13T09:33:49.176Z,15.55
2023-04-13T09:36:18.656Z,15.59
2023-04-13T09:38:51.520Z,15.62
2023-04-13T09:41:34.074Z,15.69
2023-04-13T09:44:02.877Z,15.72
2023-04-13T09:46:31.428Z,15.61
2023-04-13T09:49:01.279Z,15.46
2023-04-13T09:51:37.621Z,15.39
2023-04-13T09:54:06.954Z,15.63
2023-04-13T09:56:46.942Z,15.69
2023-04-13T09:59:15.526Z,15.55
2023-04-13T10:01:44.736Z,15.56
2023-04-13T10:04:13.142Z,15.67
2023-04-13T10:06:43.129Z,15.58
2023-04-13T10:09:11.559Z,15.81
2023-04-13T10:11:42.799Z,15.85
2023-04-13T10:14:19.191Z,15.91
2023-04-13T10:17:27.798Z,15.90
2023-04-13T10:20:00.187Z,15.74
2023-04-13T10:22:30.646Z,15.31
2023-04-13T10:24:58.824Z,15.10
2023-04-13T10:27:29.506Z,14.99
2023-04-13T10:30:00.792Z,14.93
2023-04-13T10:32:29.550Z,14.83
2023-04-13T10:34:57.865Z,14.84
2023-04-13T10:37:28.742Z,14.68
2023-04-13T10:40:04.576Z,14.73
2023-04-13T10:42:51.207Z,14.70
2023-04-13T10:45:24.101Z,14.88
2023-04-13T10:47:52.978Z,15.41
2023-04-13T10:50:23.055Z,16.36
2023-04-13T10:53:03.061Z,17.03
2023-04-13T10:55:31.346Z,17.14
2023-04-13T10:58:01.501Z,16.69
2023-04-13T11:00:45.647Z,16.58
2023-04-13T11:03:16.748Z,16.37
2023-04-13T11:05:46.165Z,16.01
2023-04-13T11:08:20.841Z,15.87
2023-04-13T11:10:53.578Z,15.71
2023-04-13T11:13:22.300Z,15.60
2023-04-13T11:15:53.741Z,15.29
2023-04-13T11:18:30.896Z,14.84
2023-04-13T11:20:59.094Z,14.41
2023-04-13T11:23:27.157Z,14.17
2023-04-13T11:25:58.363Z,14.15
2023-04-13T11:28:36.800Z,14.19
2023-04-13T11:31:07.559Z,14.14
2023-04-13T11:33:37.796Z,14.06
2023-04-13T11:36:08.302Z,14.22
2023-04-13T11:38:37.237Z,14.34
2023-04-13T11:41:16.313Z,14.30
2023-04-13T11:43:48.434Z,14.43
2023-04-13T11:46:25.194Z,14.56
2023-04-13T11:48:54.074Z,15.02
2023-04-13T11:51:22.534Z,15.82
2023-04-13T11:53:51.728Z,16.76
2023-04-13T11:56:20.816Z,16.99
2023-04-13T11:58:53.126Z,17.51
2023-04-13T12:01:27.135Z,18.09
2023-04-13T12:04:14.809Z,18.20
2023-04-13T12:06:47.564Z,18.03
2023-04-13T12:09:17.958Z,18.28
2023-04-13T12:12:11.579Z,18.39
2023-04-13T12:14:57.530Z,18.59
2023-04-13T12:20:04.781Z,18.51
2023-04-13T12:22:50.789Z,17.91
2023-04-13T12:25:25.771Z,17.85
2023-04-13T12:27:55.064Z,18.08
2023-04-13T12:30:24.294Z,18.25
2023-04-13T12:32:55.731Z,18.25
2023-04-13T12:35:24.184Z,17.74
2023-04-13T12:37:52.640Z,17.72
2023-04-13T12:40:21.011Z,17.37
2023-04-13T12:42:50.020Z,17.23
2023-04-13T12:45:18.147Z,17.38
2023-04-13T12:47:46.271Z,17.31
2023-04-13T12:50:15.925Z,17.35
2023-04-13T12:52:44.532Z,17.36
2023-04-13T12:55:12.650Z,17.62
2023-04-13T12:57:40.854Z,17.64
2023-04-13T13:00:12.132Z,17.49
2023-04-13T13:02:40.915Z,17.32
2023-04-13T13:05:09.947Z,17.19
2023-04-13T13:07:39.348Z,17.39
2023-04-13T13:10:25.799Z,18.21
2023-04-13T13:12:57.240Z,18.66
2023-04-13T13:15:25.446Z,18.35
2023-04-13T13:17:53.648Z,17.85
2023-04-13T13:20:21.805Z,17.99
2023-04-13T13:22:51.197Z,18.09
2023-04-13T13:25:19.324Z,18.27
2023-04-13T13:30:18.406Z,18.36
2023-04-13T13:32:46.508Z,18.24
2023-04-13T13:35:15.603Z,18.15
2023-04-13T13:37:43.660Z,17.63
2023-04-13T13:40:13.942Z,17.45
2023-04-13T13:42:51.914Z,17.29
2023-04-13T13:45:20.913Z,17.20
2023-04-13T13:47:53.012Z,17.19
2023-04-13T13:50:24.514Z,17.11
2023-04-13T13:53:02.461Z,17.20
2023-04-13T13:55:35.002Z,17.25
2023-04-13T13:58:03.408Z,17.23
2023-04-13T14:00:32.254Z,17.23
2023-04-13T14:03:00.914Z,17.38
2023-04-13T14:05:29.081Z,17.47
2023-04-13T14:07:57.108Z,17.54
2023-04-13T14:10:25.253Z,17.51
2023-04-13T14:12:55.727Z,17.63
2023-04-13T14:15:23.957Z,17.59
2023-04-13T14:18:06.531Z,17.64
2023-04-13T14:20:40.130Z,17.50
2023-04-13T14:23:09.558Z,17.36
2023-04-13T14:25:38.934Z,17.13
2023-04-13T14:28:09.365Z,16.91
2023-04-13T14:30:37.665Z,16.82
2023-04-13T14:33:07.395Z,16.73
2023-04-13T14:35:35.566Z,16.69
2023-04-13T14:38:03.598Z,16.84
2023-04-13T14:40:31.862Z,17.04
2023-04-13T14:42:59.963Z,17.30
2023-04-13T14:45:29.711Z,17.45
2023-04-13T14:47:57.824Z,17.62
2023-04-13T14:50:25.982Z,17.72
2023-04-13T14:52:53.999Z,18.04
2023-04-13T14:55:22.923Z,18.51
2023-04-13T14:57:51.247Z,18.55
2023-04-13T15:00:26.203Z,18.42
2023-04-13T15:02:56.259Z,18.33
2023-04-13T15:05:25.131Z,18.28
2023-04-13T15:07:53.288Z,18.15
2023-04-13T15:10:21.543Z,18.14
2023-04-13T15:12:49.608Z,18.13
2023-04-13T15:15:17.810Z,18.37
2023-04-13T15:17:46.318Z,18.35
2023-04-13T15:20:15.824Z,18.40
2023-04-13T15:22:43.873Z,18.25
2023-04-13T15:25:12.158Z,18.25
2023-04-13T15:27:40.462Z,18.07
2023-04-13T15:30:10.270Z,18.12
2023-04-13T15:32:38.339Z,18.11
2023-04-13T15:35:06.778Z,18.07
2023-04-13T15:37:36.231Z,18.04
2023-04-13T15:40:07.653Z,18.00
2023-04-13T15:42:36.159Z,17.93
2023-04-13T15:45:05.354Z,17.85
2023-04-13T15:47:33.955Z,17.72
2023-04-13T15:50:02.050Z,17.70
2023-04-13T15:52:30.292Z,17.59
2023-04-13T15:54:59.766Z,17.63
2023-04-13T15:57:28.036Z,17.63
2023-04-13T15:59:56.559Z,17.63
2023-04-13T16:02:24.877Z,17.61
2023-04-13T16:04:53.186Z,17.61
2023-04-13T16:07:21.696Z,17.64
2023-04-13T16:09:51.390Z,17.78
2023-04-13T16:12:20.823Z,17.96
2023-04-13T16:14:49.595Z,17.99
2023-04-13T16:17:18.599Z,18.07
2023-04-13T16:19:46.987Z,18.25
2023-04-13T16:22:15.788Z,18.30
2023-04-13T16:24:43.845Z,18.38
2023-04-13T16:27:12.065Z,18.46
2023-04-13T16:29:43.518Z,18.44
2023-04-13T16:32:11.672Z,18.64
2023-04-13T16:34:39.797Z,18.62
2023-04-13T16:37:08.352Z,18.57
2023-04-13T16:39:36.456Z,18.55
2023-04-13T16:42:04.679Z,18.48
2023-04-13T16:44:33.300Z,18.47
2023-04-13T16:47:02.984Z,18.48
2023-04-13T16:49:31.900Z,18.55
2023-04-13T16:51:59.935Z,18.64
2023-04-13T16:54:28.024Z,18.69
2023-04-13T16:56:56.073Z,18.65
2023-04-13T16:59:24.181Z,18.59
2023-04-13T17:01:52.431Z,18.57
2023-04-13T17:04:23.878Z,18.55
2023-04-13T17:06:54.117Z,18.58
2023-04-13T17:09:24.136Z,18.57
2023-04-13T17:11:56.611Z,18.58
2023-04-13T17:14:29.712Z,18.65
2023-04-13T17:17:08.813Z,18.48
2023-04-13T17:19:52.580Z,18.26
2023-04-13T17:22:26.182Z,18.15
2023-04-13T17:25:00.089Z,18.07
2023-04-13T17:27:33.640Z,18.04
2023-04-13T17:30:04.296Z,17.99
2023-04-13T17:32:41.136Z,17.92
2023-04-13T17:35:22.393Z,17.93
2023-04-13T17:37:58.641Z,17.81
2023-04-13T17:40:28.906Z,17.80
2023-04-13T17:42:58.631Z,17.82
2023-04-13T17:45:32.513Z,17.91
2023-04-13T17:48:11.810Z,17.99
2023-04-13T17:50:45.177Z,17.98
2023-04-13T17:53:28.548Z,17.94
2023-04-13T17:55:59.635Z,17.83
2023-04-13T17:58:34.181Z,17.67
2023-04-13T18:01:13.059Z,17.50
2023-04-13T18:03:56.624Z,17.28
2023-04-13T18:06:27.214Z,17.21
2023-04-13T18:08:55.227Z,17.06
2023-04-13T18:11:23.268Z,16.90
2023-04-13T18:13:51.270Z,16.72
2023-04-13T18:16:19.402Z,16.56
2023-04-13T18:18:47.543Z,16.56
2023-04-13T18:21:16.308Z,16.48
2023-04-13T18:23:45.793Z,16.36
2023-04-13T18:26:13.833Z,16.29
2023-04-13T18:28:41.854Z,16.20
2023-04-13T18:31:09.925Z,16.08
2023-04-13T18:33:37.987Z,16.01
2023-04-13T18:36:06.454Z,15.92
2023-04-13T18:38:34.573Z,15.89
2023-04-13T18:41:03.951Z,15.82
2023-04-13T18:43:32.079Z,15.77
2023-04-13T18:46:00.317Z,15.74
2023-04-13T18:48:28.577Z,15.71
2023-04-13T18:50:56.679Z,15.65
2023-04-13T18:53:24.805Z,15.65
2023-04-13T18:55:53.353Z,15.57
2023-04-13T18:58:22.777Z,15.47
2023-04-13T19:00:50.808Z,15.45
2023-04-13T19:03:18.931Z,15.33
2023-04-13T19:05:47.261Z,15.24
2023-04-13T19:08:15.581Z,15.22
2023-04-13T19:10:45.031Z,15.16
2023-04-13T19:13:14.251Z,15.13
2023-04-13T19:15:43.692Z,15.09
2023-04-13T19:18:12.634Z,15.02
2023-04-13T19:20:40.698Z,14.99
2023-04-13T19:23:08.784Z,14.93
2023-04-13T19:25:36.846Z,14.89
2023-04-13T19:28:27.359Z,14.75
2023-04-13T19:30:56.809Z,14.72
2023-04-13T19:33:24.812Z,14.69
2023-04-13T19:35:53.458Z,14.62
2023-04-13T19:38:21.655Z,14.52
2023-04-13T19:40:49.755Z,14.44
2023-04-13T19:43:22.300Z,14.37
2023-04-13T19:45:50.351Z,14.28
2023-04-13T19:48:19.977Z,14.20
2023-04-13T19:50:47.994Z,14.09
2023-04-13T19:53:16.171Z,13.98
2023-04-13T19:55:44.209Z,13.85
2023-04-13T19:58:12.333Z,13.73
2023-04-13T20:00:40.435Z,13.60
2023-04-13T20:03:08.942Z,13.45
2023-04-13T20:05:40.006Z,13.35
2023-04-13T20:08:08.116Z,13.26
2023-04-13T20:10:36.134Z,13.20
2023-04-13T20:13:04.154Z,13.12
2023-04-13T20:15:34.898Z,13.04
2023-04-13T20:18:06.256Z,12.97
2023-04-13T20:20:35.267Z,12.88
2023-04-13T20:23:04.661Z,12.81
2023-04-13T20:25:32.724Z,12.74
2023-04-13T20:28:00.763Z,12.69
2023-04-13T20:30:28.784Z,12.64
2023-04-13T20:32:56.938Z,12.59
2023-04-13T20:35:25.055Z,12.53
2023-04-13T20:37:53.193Z,12.46
2023-04-13T20:40:27.143Z,12.41
2023-04-13T20:42:55.797Z,12.33
2023-04-13T20:45:23.871Z,12.30
2023-04-13T20:47:56.178Z,12.25
2023-04-13T20:50:27.539Z,12.21
2023-04-13T20:52:56.764Z,12.18
2023-04-13T20:55:27.044Z,12.11
2023-04-13T20:57:55.895Z,12.07
2023-04-13T21:00:25.122Z,12.04
2023-04-13T21:02:55.000Z,12.01
2023-04-13T21:05:23.202Z,11.97
2023-04-13T21:07:51.847Z,11.93
2023-04-13T21:10:20.044Z,11.89
2023-04-13T21:12:49.489Z,11.85
2023-04-13T21:15:17.533Z,11.81
2023-04-13T21:17:45.777Z,11.79
2023-04-13T21:20:14.289Z,11.75
2023-04-13T21:22:42.313Z,11.71
2023-04-13T21:25:11.001Z,11.63
2023-04-13T21:27:39.017Z,11.60
2023-04-13T21:30:09.745Z,11.55
2023-04-13T21:32:38.048Z,11.47
2023-04-13T21:35:07.129Z,11.43
2023-04-13T21:37:35.245Z,11.36
2023-04-13T21:40:04.362Z,11.27
2023-04-13T21:42:32.514Z,11.25
2023-04-13T21:45:00.555Z,11.22
2023-04-13T21:47:30.028Z,11.17
2023-04-13T21:49:58.054Z,11.14
2023-04-13T21:52:26.181Z,11.10
2023-04-13T21:54:54.226Z,11.08
2023-04-13T21:57:22.240Z,11.05
2023-04-13T21:59:50.428Z,11.02
2023-04-13T22:02:18.627Z,10.97
2023-04-13T22:04:48.087Z,10.96
2023-04-13T22:07:16.140Z,10.95
2023-04-13T22:09:44.216Z,10.90
2023-04-13T22:12:12.497Z,10.89
2023-04-13T22:14:40.671Z,10.85
2023-04-13T22:17:08.693Z,10.82
2023-04-13T22:19:36.708Z,10.78
2023-04-13T22:22:06.151Z,10.73
2023-04-13T22:24:34.168Z,10.71
2023-04-13T22:27:03.472Z,10.69
2023-04-13T22:29:31.559Z,10.66
2023-04-13T22:31:59.792Z,10.63
2023-04-13T22:34:28.448Z,10.65
2023-04-13T22:36:56.703Z,10.65
2023-04-13T22:39:26.574Z,10.62
2023-04-13T22:41:54.635Z,10.62
2023-04-13T22:44:22.779Z,10.57
2023-04-13T22:46:50.914Z,10.53
2023-04-13T22:49:19.468Z,10.46
2023-04-13T22:51:47.573Z,10.40
2023-04-13T22:54:20.729Z,10.37
2023-04-13T22:56:50.361Z,10.34
2023-04-13T22:59:18.555Z,10.30
2023-04-13T23:01:46.942Z,10.27
2023-04-13T23:04:16.195Z,10.24
2023-04-13T23:06:44.735Z,10.20
2023-04-13T23:09:17.044Z,10.13
2023-04-13T23:11:52.711Z,10.09
2023-04-13T23:14:23.722Z,10.07
2023-04-13T23:16:52.136Z,10.07
2023-04-13T23:19:20.369Z,10.07
2023-04-13T23:21:48.719Z,10.06
2023-04-13T23:24:19.539Z,10.04
2023-04-13T23:26:49.237Z,9.99
2023-04-13T23:29:19.563Z,9.95
2023-04-13T23:31:47.785Z,9.90
2023-04-13T23:34:16.063Z,9.84
2023-04-13T23:36:44.398Z,9.81
2023-04-13T23:39:12.646Z,9.80
2023-04-13T23:41:40.761Z,9.76
2023-04-13T23:44:11.053Z,9.74
2023-04-13T23:46:44.342Z,9.71
2023-04-13T23:49:12.485Z,9.71
2023-04-13T23:51:40.719Z,9.71
2023-04-13T23:54:08.881Z,9.69
2023-04-13T23:56:37.452Z,9.68
2023-04-13T23:59:10.074Z,9.67
